Time;durP1;ratioP1;P1;durP2;ratioP2;P2;SDS_P1;SDS_P2;PMS_P1;PMS_P2;Temp;Humidity;BMP_temperature;BMP_pressure;BME280_temperature;BME280_humidity;BME280_pressure;Samples;Min_cycle;Max_cycle;Signal;HPM_P1;HPM_P2
2021/04/23 00:01:18;;;;;;;7.60;6.28;;;14.50;57.30;;;;;;5052678;28;20566;-81
2021/04/23 00:03:58;;;;;;;8.90;6.50;;;14.50;57.30;;;;;;5054581;28;20084;-81
2021/04/23 00:06:37;;;;;;;9.05;6.65;;;14.50;57.40;;;;;;5055874;28;20053;-81
2021/04/23 00:09:22;;;;;;;8.30;6.10;;;14.50;57.40;;;;;;5056500;28;20024;-81
2021/04/23 00:11:55;;;;;;;10.57;6.75;;;14.50;57.40;;;;;;5056174;28;20036;-82
2021/04/23 00:14:35;;;;;;;9.30;5.88;;;14.50;57.40;;;;;;5053781;28;20497;-83
2021/04/23 00:17:02;;;;;;;11.65;6.50;;;14.50;57.40;;;;;;5055615;28;20033;-86
2021/04/23 00:19:29;;;;;;;9.10;6.57;;;14.50;57.40;;;;;;5054737;28;20047;-83
2021/04/23 00:21:57;;;;;;;7.88;6.35;;;14.40;57.40;;;;;;5055986;28;20049;-83
2021/04/23 00:24:25;;;;;;;8.30;6.50;;;14.40;57.30;;;;;;5055604;28;20559;-82
2021/04/23 00:26:52;;;;;;;11.57;6.32;;;14.40;57.50;;;;;;5055659;28;20045;-81
2021/04/23 00:29:18;;;;;;;8.65;6.72;;;14.40;57.50;;;;;;5056010;28;20559;-80
2021/04/23 00:34:31;;;;;;;10.40;6.43;;;14.40;58.10;;;;;;5055769;28;20036;-82
2021/04/23 00:36:58;;;;;;;8.00;6.10;;;14.40;57.60;;;;;;5053955;28;20037;-81
2021/04/23 00:39:24;;;;;;;8.35;6.70;;;14.30;57.60;;;;;;5055293;28;20031;-81
2021/04/23 00:41:50;;;;;;;9.57;6.93;;;14.30;57.70;;;;;;5055600;28;20040;-82
2021/04/23 00:44:18;;;;;;;9.60;6.47;;;14.30;57.70;;;;;;5055904;28;20507;-81
2021/04/23 00:46:44;;;;;;;8.95;7.40;;;14.30;57.70;;;;;;5055992;28;20071;-82
2021/04/23 00:49:11;;;;;;;6.93;6.22;;;14.30;57.60;;;;;;5054630;28;20069;-83
2021/04/23 00:51:58;;;;;;;6.20;5.40;;;14.30;57.70;;;;;;5055648;28;20041;-81
2021/04/23 00:54:26;;;;;;;7.57;6.22;;;14.30;57.70;;;;;;5055537;28;20047;-82
2021/04/23 00:56:53;;;;;;;8.43;6.72;;;14.30;57.70;;;;;;5037951;28;20114;-81
2021/04/23 00:59:19;;;;;;;8.85;6.45;;;14.30;57.80;;;;;;5055251;28;20029;-82
2021/04/23 01:01:59;;;;;;;7.35;6.43;;;14.30;57.80;;;;;;5053393;28;20409;-82
2021/04/23 01:04:28;;;;;;;11.70;6.85;;;14.30;58.00;;;;;;5054075;28;20037;-82
2021/04/23 01:06:55;;;;;;;10.38;6.85;;;14.20;58.00;;;;;;5054977;28;20037;-81
2021/04/23 01:09:24;;;;;;;7.25;6.00;;;14.20;58.00;;;;;;5054880;28;20037;-81
2021/04/23 01:11:52;;;;;;;9.07;7.30;;;14.20;58.00;;;;;;5055430;28;20044;-83
2021/04/23 01:14:18;;;;;;;8.98;7.05;;;14.20;58.20;;;;;;5036311;28;20080;-82
2021/04/23 01:16:45;;;;;;;9.13;6.78;;;14.20;58.30;;;;;;5055035;28;20041;-83
2021/04/23 01:19:15;;;;;;;15.32;8.10;;;14.20;58.30;;;;;;5054634;28;20033;-81
2021/04/23 01:21:42;;;;;;;8.50;6.88;;;14.20;58.40;;;;;;5036971;28;20032;-82
2021/04/23 01:24:10;;;;;;;8.93;7.07;;;14.20;58.30;;;;;;5054644;28;20123;-82
2021/04/23 01:26:46;;;;;;;8.70;7.00;;;14.20;58.40;;;;;;5053387;28;20048;-81
2021/04/23 01:29:12;;;;;;;;;;;14.20;58.40;;;;;;5054810;28;20051;-81
2021/04/23 01:31:41;;;;;;;9.57;7.45;;;14.20;58.40;;;;;;5054363;28;19912;-83
2021/04/23 01:34:14;;;;;;;9.23;7.38;;;14.20;58.40;;;;;;5053264;28;20041;-82
2021/04/23 01:36:41;;;;;;;10.40;7.07;;;14.20;58.50;;;;;;5053607;28;20037;-81
2021/04/23 01:39:15;;;;;;;11.40;7.43;;;14.10;58.70;;;;;;5053188;28;20508;-83
2021/04/23 01:41:42;;;;;;;9.43;7.60;;;14.10;58.60;;;;;;5054552;28;20032;-82
2021/04/23 01:44:10;;;;;;;10.77;7.28;;;14.10;58.70;;;;;;5053019;28;20135;-82
2021/04/23 01:46:37;;;;;;;23.85;8.00;;;14.20;58.70;;;;;;5054011;28;20492;-82
2021/04/23 01:49:10;;;;;;;9.40;7.30;;;14.20;58.70;;;;;;5054306;28;20033;-83
2021/04/23 01:51:40;;;;;;;9.43;6.80;;;14.10;58.60;;;;;;5053118;28;20075;-83
2021/04/23 01:54:09;;;;;;;9.48;7.05;;;14.20;58.70;;;;;;5052968;28;20397;-82
2021/04/23 01:56:35;;;;;;;9.82;7.47;;;14.10;58.70;;;;;;5053768;28;20044;-83
2021/04/23 01:59:02;;;;;;;9.75;7.20;;;14.10;58.80;;;;;;5054052;28;20063;-83
2021/04/23 02:01:28;;;;;;;10.13;7.65;;;14.20;58.90;;;;;;5053759;28;20044;-83
2021/04/23 02:03:54;;;;;;;11.32;7.32;;;14.10;59.00;;;;;;5053875;28;20041;-81
2021/04/23 02:06:20;;;;;;;9.88;7.32;;;14.10;58.90;;;;;;5053912;28;20087;-81
2021/04/23 02:08:46;;;;;;;16.58;7.90;;;14.10;59.00;;;;;;5053958;28;20029;-81
2021/04/23 02:11:15;;;;;;;9.35;7.32;;;14.10;58.90;;;;;;5053891;28;20056;-83
2021/04/23 02:13:42;;;;;;;9.98;8.00;;;14.10;59.00;;;;;;5051917;28;20099;-81
2021/04/23 02:16:10;;;;;;;9.73;7.40;;;14.10;58.90;;;;;;5053489;28;20044;-82
2021/04/23 02:18:36;;;;;;;7.97;7.18;;;14.10;59.10;;;;;;5053681;28;20033;-82
2021/04/23 02:21:07;;;;;;;12.68;7.03;;;14.10;59.00;;;;;;5053659;28;20045;-83
2021/04/23 02:23:34;;;;;;;11.75;7.78;;;14.10;59.00;;;;;;5053467;28;20041;-81
2021/04/23 02:26:01;;;;;;;12.23;6.80;;;14.10;59.00;;;;;;5053057;28;20052;-82
2021/04/23 02:28:27;;;;;;;8.65;7.25;;;14.20;59.00;;;;;;5051972;28;20477;-81
2021/04/23 02:30:59;;;;;;;8.43;6.47;;;14.20;59.00;;;;;;5052368;28;20049;-82
2021/04/23 02:33:27;;;;;;;8.27;6.97;;;14.20;58.90;;;;;;5035582;28;20029;-82
2021/04/23 02:35:55;;;;;;;10.00;7.30;;;14.20;59.00;;;;;;5053569;28;20103;-82
2021/04/23 02:38:22;;;;;;;8.10;6.28;;;14.20;59.00;;;;;;5053018;28;20119;-80
2021/04/23 02:40:49;;;;;;;9.50;6.93;;;14.20;59.10;;;;;;5052473;28;20137;-81
2021/04/23 02:43:19;;;;;;;10.00;6.53;;;14.20;59.10;;;;;;5053825;28;20040;-82
2021/04/23 02:45:48;;;;;;;10.57;7.35;;;14.20;59.20;;;;;;5055235;28;20029;-82
2021/04/23 02:48:16;;;;;;;9.07;6.47;;;14.20;59.20;;;;;;5055344;28;20512;-82
2021/04/23 02:50:46;;;;;;;7.82;6.97;;;14.20;59.20;;;;;;5053283;28;20091;-81
2021/04/23 02:53:12;;;;;;;7.35;6.57;;;14.20;59.00;;;;;;5035365;28;20041;-81
2021/04/23 02:55:40;;;;;;;9.48;6.95;;;14.20;59.10;;;;;;5051708;28;20079;-82
2021/04/23 02:58:16;;;;;;;7.85;6.82;;;14.20;59.10;;;;;;5051771;28;20064;-81
2021/04/23 03:00:46;;;;;;;9.70;6.93;;;14.30;59.10;;;;;;5052941;28;20068;-82
2021/04/23 03:03:12;;;;;;;10.73;6.78;;;14.30;59.70;;;;;;5053347;28;20142;-81
2021/04/23 03:05:41;;;;;;;7.80;6.78;;;14.30;59.10;;;;;;5052520;28;20036;-81
2021/04/23 03:08:08;;;;;;;11.95;7.47;;;14.30;59.00;;;;;;5051482;28;20056;-83
2021/04/23 03:10:39;;;;;;;10.88;8.20;;;14.30;58.90;;;;;;5052687;28;20064;-82
2021/04/23 03:13:09;;;;;;;8.45;7.15;;;14.40;58.90;;;;;;5052737;28;20474;-81
2021/04/23 03:15:35;;;;;;;8.10;7.03;;;14.40;58.90;;;;;;5051205;28;20024;-83
2021/04/23 03:18:02;;;;;;;12.20;8.35;;;14.40;58.80;;;;;;5052634;28;20044;-83
2021/04/23 03:20:30;;;;;;;9.48;7.32;;;14.40;58.70;;;;;;5051320;28;20029;-82
2021/04/23 03:22:57;;;;;;;11.02;7.93;;;14.50;58.70;;;;;;5051403;28;20162;-83
2021/04/23 03:25:28;;;;;;;10.70;7.60;;;14.50;58.60;;;;;;5051280;28;20039;-83
2021/04/23 03:27:54;;;;;;;9.68;7.18;;;14.50;58.60;;;;;;5052367;28;20114;-82
2021/04/23 03:30:24;;;;;;;8.40;7.22;;;14.50;58.50;;;;;;5052283;28;20040;-82
2021/04/23 03:32:52;;;;;;;7.63;6.75;;;14.60;58.60;;;;;;5051422;28;20036;-85
2021/04/23 03:35:19;;;;;;;9.80;7.60;;;14.60;58.40;;;;;;5051181;28;20106;-80
2021/04/23 03:37:46;;;;;;;8.98;7.45;;;14.70;58.40;;;;;;5055707;28;20479;-77
2021/04/23 03:40:14;;;;;;;10.80;8.43;;;14.70;58.40;;;;;;5056304;28;20087;-79
2021/04/23 03:42:41;;;;;;;8.18;7.13;;;14.70;58.50;;;;;;5055850;28;20040;-79
2021/04/23 03:45:10;;;;;;;8.52;7.15;;;14.70;58.30;;;;;;5056295;28;20025;-79
2021/04/23 03:47:36;;;;;;;10.35;7.40;;;14.80;58.30;;;;;;5055928;28;20045;-78
2021/04/23 03:50:06;;;;;;;10.23;6.78;;;14.80;58.20;;;;;;5056432;28;20045;-78
2021/04/23 03:52:32;;;;;;;8.65;7.13;;;14.80;58.20;;;;;;5038701;28;20048;-80
2021/04/23 03:55:01;;;;;;;11.20;7.07;;;14.90;58.20;;;;;;5056080;28;20040;-78
2021/04/23 03:57:27;;;;;;;10.48;7.70;;;14.90;58.10;;;;;;5056215;28;20061;-80
2021/04/23 03:59:53;;;;;;;13.40;7.53;;;15.00;58.10;;;;;;5056080;28;20386;-80
2021/04/23 04:02:19;;;;;;;11.40;7.28;;;15.00;58.00;;;;;;5056322;28;20048;-78
2021/04/23 04:04:44;;;;;;;9.50;7.03;;;15.10;57.90;;;;;;5056070;28;20091;-78
2021/04/23 04:07:10;;;;;;;7.60;6.70;;;15.20;57.80;;;;;;5055786;28;20045;-80
2021/04/23 04:09:36;;;;;;;9.27;6.55;;;15.30;57.60;;;;;;5055597;28;20033;-79
2021/04/23 04:12:03;;;;;;;8.73;6.88;;;15.40;57.50;;;;;;5055957;28;20043;-79
2021/04/23 04:14:29;;;;;;;9.90;7.10;;;15.40;57.30;;;;;;5054148;28;20045;-80
2021/04/23 04:16:55;;;;;;;8.43;6.68;;;15.50;57.30;;;;;;5055439;28;20040;-80
2021/04/23 04:19:21;;;;;;;10.48;7.00;;;15.50;57.20;;;;;;5054369;28;20028;-80
2021/04/23 04:21:47;;;;;;;10.80;6.57;;;15.50;57.20;;;;;;5054241;28;20037;-79
2021/04/23 04:24:13;;;;;;;8.27;6.40;;;15.50;57.20;;;;;;5055575;28;20527;-82
2021/04/23 04:26:39;;;;;;;10.95;6.22;;;15.50;57.20;;;;;;5055522;28;20048;-79
2021/04/23 04:29:04;;;;;;;10.48;6.68;;;15.50;57.20;;;;;;5055397;28;20523;-81
2021/04/23 04:31:31;;;;;;;10.70;7.18;;;15.50;57.20;;;;;;5055546;28;20519;-81
2021/04/23 04:33:57;;;;;;;10.77;6.40;;;15.50;57.20;;;;;;5054083;28;20079;-77
2021/04/23 04:36:24;;;;;;;6.93;6.13;;;15.40;57.20;;;;;;5049320;28;20482;-77
2021/04/23 04:38:51;;;;;;;9.98;6.10;;;15.50;57.40;;;;;;5052754;28;20086;-78
2021/04/23 04:41:18;;;;;;;11.95;6.70;;;15.70;57.40;;;;;;5053082;28;20048;-78
2021/04/23 04:43:45;;;;;;;8.80;6.90;;;15.90;57.10;;;;;;5055048;28;20405;-79
2021/04/23 04:46:11;;;;;;;9.98;6.28;;;16.10;56.90;;;;;;5055019;28;20056;-79
2021/04/23 04:48:38;;;;;;;10.18;7.38;;;16.10;56.60;;;;;;5052372;28;20041;-79
2021/04/23 04:51:08;;;;;;;11.70;7.25;;;16.30;56.40;;;;;;5055131;28;20082;-79
2021/04/23 04:53:35;;;;;;;9.30;7.03;;;16.70;56.10;;;;;;5054194;28;20407;-79
2021/04/23 04:56:02;;;;;;;9.73;6.50;;;17.10;55.50;;;;;;5054970;28;20056;-79
2021/04/23 04:58:32;;;;;;;25.63;17.33;;;17.10;55.60;;;;;;5055219;28;20032;-79
2021/04/23 05:00:59;;;;;;;18.75;11.77;;;17.20;54.80;;;;;;5055005;28;20548;-79
2021/04/23 05:03:26;;;;;;;13.63;10.63;;;17.20;54.70;;;;;;5054036;28;20131;-79
2021/04/23 05:05:52;;;;;;;11.82;9.25;;;17.50;54.50;;;;;;5054959;28;20432;-79
2021/04/23 05:08:18;;;;;;;13.82;9.48;;;18.00;53.90;;;;;;5054363;28;20051;-79
2021/04/23 05:10:44;;;;;;;10.35;7.50;;;18.30;53.30;;;;;;5054657;28;20417;-79
2021/04/23 05:13:11;;;;;;;12.52;7.32;;;18.50;52.70;;;;;;5054492;28;20071;-78
2021/04/23 05:15:37;;;;;;;8.05;6.63;;;18.50;52.40;;;;;;5054677;28;20453;-79
2021/04/23 05:18:03;;;;;;;8.65;7.15;;;18.50;52.80;;;;;;5054648;28;20485;-78
2021/04/23 05:20:30;;;;;;;9.77;6.88;;;18.70;52.30;;;;;;5054941;28;20037;-79
2021/04/23 05:22:56;;;;;;;8.23;6.82;;;18.90;52.00;;;;;;5053168;28;20045;-79
2021/04/23 05:25:24;;;;;;;8.88;6.18;;;19.10;51.50;;;;;;5054064;28;20579;-78
2021/04/23 05:27:51;;;;;;;10.57;5.85;;;19.30;51.10;;;;;;5052715;28;20090;-79
2021/04/23 05:30:20;;;;;;;10.32;5.93;;;19.40;50.70;;;;;;5054016;28;20173;-79
2021/04/23 05:32:47;;;;;;;9.80;6.50;;;19.40;50.40;;;;;;5054204;28;20063;-79
2021/04/23 05:35:14;;;;;;;9.52;6.05;;;19.30;50.30;;;;;;5054516;28;20401;-79
2021/04/23 05:37:41;;;;;;;9.75;6.03;;;19.10;50.60;;;;;;5054293;28;20464;-79
2021/04/23 05:40:10;;;;;;;11.82;6.22;;;19.00;50.70;;;;;;5054246;28;20044;-87
2021/04/23 05:42:36;;;;;;;8.85;5.70;;;18.90;51.00;;;;;;5054859;28;20068;-86
2021/04/23 05:45:03;;;;;;;8.32;5.65;;;18.80;51.20;;;;;;5054983;28;20071;-84
2021/04/23 05:47:29;;;;;;;6.93;6.22;;;18.70;51.40;;;;;;5060034;28;20047;-84
2021/04/23 05:49:55;;;;;;;7.03;5.88;;;18.70;51.50;;;;;;5064360;28;20093;-85
2021/04/23 05:52:21;;;;;;;7.00;6.25;;;18.80;51.60;;;;;;5054560;28;20052;-87
2021/04/23 05:54:47;;;;;;;8.02;6.13;;;18.90;51.40;;;;;;5055243;28;20037;-88
2021/04/23 05:57:13;;;;;;;9.02;5.40;;;18.90;51.30;;;;;;5054100;28;20037;-86
2021/04/23 05:59:39;;;;;;;8.52;6.05;;;18.90;51.20;;;;;;5054220;28;20052;-85
2021/04/23 06:02:05;;;;;;;8.73;6.50;;;19.00;51.30;;;;;;5056455;28;20053;-80
2021/04/23 06:04:31;;;;;;;9.57;6.43;;;19.20;52.10;;;;;;5054271;28;20044;-79
2021/04/23 06:06:57;;;;;;;8.13;5.40;;;19.20;51.90;;;;;;5054881;28;20048;-81
2021/04/23 06:09:24;;;;;;;8.45;6.15;;;19.10;51.60;;;;;;5055333;28;20041;-85
2021/04/23 06:11:50;;;;;;;10.75;5.88;;;18.90;51.50;;;;;;5056635;28;20444;-86
2021/04/23 06:14:16;;;;;;;9.93;6.90;;;18.80;51.50;;;;;;5056481;28;20040;-88
2021/04/23 06:16:42;;;;;;;10.68;6.20;;;18.70;51.60;;;;;;5055907;28;20115;-82
2021/04/23 06:19:08;;;;;;;10.32;6.20;;;18.50;51.70;;;;;;5054406;28;20041;-84
2021/04/23 06:21:34;;;;;;;10.60;6.82;;;18.30;52.10;;;;;;5057224;28;20199;-86
2021/04/23 06:24:01;;;;;;;8.75;6.30;;;18.10;52.70;;;;;;5057543;28;20032;-86
2021/04/23 06:26:27;;;;;;;7.65;6.15;;;18.00;53.30;;;;;;5055939;28;20498;-90
2021/04/23 06:28:54;;;;;;;10.02;6.25;;;17.80;53.80;;;;;;5057491;28;20039;-85
2021/04/23 06:31:21;;;;;;;8.00;6.10;;;17.70;54.40;;;;;;5056349;28;20033;-86
2021/04/23 06:33:51;;;;;;;8.93;6.47;;;17.60;54.80;;;;;;5057407;28;20037;-88
2021/04/23 06:36:17;;;;;;;7.57;6.18;;;17.40;55.40;;;;;;5056623;28;20060;-84
2021/04/23 06:38:43;;;;;;;7.43;5.60;;;17.30;55.90;;;;;;5056131;28;20067;-87
2021/04/23 06:41:09;;;;;;;9.65;5.85;;;17.20;56.10;;;;;;5056019;28;20041;-83
2021/04/23 06:43:36;;;;;;;10.90;6.18;;;17.10;56.30;;;;;;5054136;28;20048;-79
2021/04/23 06:46:02;;;;;;;6.43;5.70;;;17.20;56.50;;;;;;5055329;28;20044;-81
2021/04/23 06:48:28;;;;;;;9.60;6.25;;;17.20;56.70;;;;;;5054583;28;20435;-83
2021/04/23 06:50:54;;;;;;;10.45;7.00;;;17.20;56.80;;;;;;5058155;28;20032;-85
2021/04/23 06:53:21;;;;;;;7.97;6.80;;;17.30;56.80;;;;;;5062363;28;20064;-83
2021/04/23 06:55:47;;;;;;;7.65;6.85;;;17.30;56.70;;;;;;5056814;28;20116;-83
2021/04/23 06:58:13;;;;;;;8.00;7.05;;;17.50;56.60;;;;;;5037715;28;20033;-87
2021/04/23 07:00:41;;;;;;;7.88;6.68;;;17.70;56.50;;;;;;5055247;28;20124;-82
2021/04/23 07:03:10;;;;;;;8.15;6.95;;;18.00;55.90;;;;;;5055595;28;20063;-82
2021/04/23 07:05:38;;;;;;;8.85;6.53;;;18.30;55.40;;;;;;5055138;28;20029;-81
2021/04/23 07:08:05;;;;;;;8.05;7.20;;;18.50;55.10;;;;;;5037396;28;20445;-82
2021/04/23 07:10:31;;;;;;;9.60;7.47;;;18.60;54.70;;;;;;5054213;28;20045;-80
2021/04/23 07:12:58;;;;;;;10.02;7.65;;;18.70;54.60;;;;;;5053547;28;20040;-80
2021/04/23 07:15:26;;;;;;;9.85;7.40;;;18.70;54.30;;;;;;5053824;28;20037;-81
2021/04/23 07:17:53;;;;;;;9.15;7.53;;;18.80;53.90;;;;;;5052714;28;20087;-81
2021/04/23 07:20:19;;;;;;;9.73;6.93;;;18.80;53.40;;;;;;5053572;28;20432;-80
2021/04/23 07:22:47;;;;;;;10.95;8.05;;;18.80;53.30;;;;;;5053587;28;20033;-81
2021/04/23 07:25:13;;;;;;;7.72;6.93;;;18.90;53.40;;;;;;5052974;28;20045;-79
2021/04/23 07:27:39;;;;;;;8.30;6.90;;;18.90;53.20;;;;;;5053014;28;20041;-79
2021/04/23 07:30:12;;;;;;;10.13;7.47;;;18.90;53.10;;;;;;5053005;28;20560;-80
2021/04/23 07:32:38;;;;;;;7.68;6.72;;;18.80;53.00;;;;;;5051917;28;20045;-79
2021/04/23 07:35:06;;;;;;;7.97;7.07;;;18.70;53.20;;;;;;5053454;28;20041;-80
2021/04/23 07:37:32;;;;;;;10.80;6.95;;;18.80;53.60;;;;;;5052803;28;20390;-80
2021/04/23 07:39:58;;;;;;;8.75;6.93;;;18.80;53.50;;;;;;5052911;28;20119;-79
2021/04/23 07:42:24;;;;;;;7.95;7.00;;;19.00;53.90;;;;;;5053652;28;20033;-81
2021/04/23 07:44:50;;;;;;;7.25;6.38;;;19.10;53.20;;;;;;5053293;28;20033;-77
2021/04/23 07:47:17;;;;;;;6.90;6.20;;;19.20;52.80;;;;;;5052619;28;20041;-78
2021/04/23 07:49:46;;;;;;;8.70;6.47;;;19.20;52.40;;;;;;5052518;28;20040;-79
2021/04/23 07:52:13;;;;;;;6.70;6.00;;;19.40;52.30;;;;;;5052646;28;20405;-81
2021/04/23 07:54:39;;;;;;;7.97;6.43;;;19.50;52.30;;;;;;5052449;28;20033;-77
2021/04/23 07:57:06;;;;;;;8.15;6.30;;;19.60;52.20;;;;;;5052640;28;20037;-81
2021/04/23 07:59:32;;;;;;;9.25;6.45;;;19.70;51.90;;;;;;5052714;28;20037;-80
2021/04/23 08:01:58;;;;;;;8.50;6.05;;;19.80;51.40;;;;;;5052599;28;20060;-81
2021/04/23 08:04:25;;;;;;;9.65;6.63;;;19.90;51.20;;;;;;5051735;28;20056;-81
2021/04/23 08:06:51;;;;;;;9.43;6.30;;;19.90;50.90;;;;;;5053341;28;20051;-79
2021/04/23 08:09:17;;;;;;;7.70;6.45;;;19.80;50.70;;;;;;5052736;28;20033;-80
2021/04/23 08:11:42;;;;;;;9.80;6.60;;;19.90;50.70;;;;;;5053149;28;20037;-80
2021/04/23 08:14:08;;;;;;;8.75;6.30;;;19.90;51.10;;;;;;5052876;28;20150;-80
2021/04/23 08:16:35;;;;;;;9.18;6.13;;;19.90;51.20;;;;;;5052322;28;20086;-80
2021/04/23 08:19:01;;;;;;;8.65;6.32;;;19.90;51.20;;;;;;5052766;28;20082;-80
2021/04/23 08:21:28;;;;;;;9.02;6.00;;;19.90;51.10;;;;;;5050855;28;20493;-79
2021/04/23 08:23:54;;;;;;;9.85;7.20;;;19.80;51.10;;;;;;5055812;28;20040;-79
2021/04/23 08:26:22;;;;;;;7.72;6.03;;;19.80;51.10;;;;;;5056071;28;20055;-78
2021/04/23 08:28:48;;;;;;;8.23;6.18;;;19.80;51.00;;;;;;5055809;28;20036;-79
2021/04/23 08:31:14;;;;;;;7.78;5.60;;;19.80;51.00;;;;;;5055839;28;20393;-80
2021/04/23 08:33:40;;;;;;;6.80;4.93;;;19.80;50.90;;;;;;5055598;28;20048;-80
2021/04/23 08:36:06;;;;;;;10.80;5.63;;;19.80;50.80;;;;;;5056445;28;20037;-80
2021/04/23 08:38:32;;;;;;;5.65;4.68;;;19.80;50.60;;;;;;5055859;28;20407;-79
2021/04/23 08:40:58;;;;;;;5.88;4.57;;;19.90;50.60;;;;;;5056125;28;20029;-81
2021/04/23 08:43:26;;;;;;;6.32;5.72;;;19.90;50.60;;;;;;5056524;28;20436;-80
2021/04/23 08:45:52;;;;;;;7.93;5.70;;;19.90;50.30;;;;;;5055539;28;20496;-80
2021/04/23 08:48:20;;;;;;;7.72;5.78;;;19.90;50.40;;;;;;5056143;28;20084;-82
2021/04/23 08:50:47;;;;;;;7.00;5.68;;;19.80;50.50;;;;;;5056785;28;20412;-80
2021/04/23 08:53:16;;;;;;;5.95;5.35;;;19.80;50.40;;;;;;5055319;28;20087;-81
2021/04/23 08:55:41;;;;;;;6.93;5.25;;;19.70;50.50;;;;;;5055089;28;20174;-80
2021/04/23 08:58:08;;;;;;;6.45;5.65;;;19.70;50.40;;;;;;5056168;28;20049;-81
2021/04/23 09:00:34;;;;;;;9.35;5.30;;;19.60;50.50;;;;;;5056149;28;20040;-80
2021/04/23 09:03:00;;;;;;;6.20;5.60;;;19.60;50.50;;;;;;5056222;28;20484;-80
2021/04/23 09:05:26;;;;;;;6.82;5.45;;;19.60;50.50;;;;;;5055739;28;20059;-79
2021/04/23 09:08:03;;;;;;;8.75;5.40;;;19.60;51.20;;;;;;5055526;28;20553;-79
2021/04/23 09:10:30;;;;;;;5.63;5.05;;;19.60;50.50;;;;;;5055569;28;20036;-81
2021/04/23 09:13:07;;;;;;;9.98;5.20;;;19.60;50.10;;;;;;5055907;28;20090;-80
2021/04/23 09:15:33;;;;;;;6.90;4.75;;;19.60;49.90;;;;;;5055601;28;20141;-80
2021/04/23 09:18:10;;;;;;;6.47;4.57;;;19.50;50.00;;;;;;5038777;28;20409;-80
2021/04/23 09:20:47;;;;;;;7.55;4.47;;;19.50;49.80;;;;;;5055236;28;20035;-80
2021/04/23 09:23:21;;;;;;;7.95;4.38;;;19.50;49.80;;;;;;5056568;28;20041;-80
2021/04/23 09:25:52;;;;;;;6.13;3.92;;;19.50;49.70;;;;;;5054872;28;20064;-80
2021/04/23 09:28:43;;;;;;;5.35;3.90;;;19.50;50.20;;;;;;5054669;28;20045;-79
2021/04/23 09:31:25;;;;;;;4.07;3.50;;;19.50;49.30;;;;;;5046675;28;20060;-81
2021/04/23 09:33:56;;;;;;;7.28;3.70;;;19.60;49.20;;;;;;5054281;28;20047;-77
2021/04/23 09:36:36;;;;;;;8.90;4.72;;;19.60;49.30;;;;;;5053955;28;20497;-80
2021/04/23 09:39:10;;;;;;;4.75;3.70;;;19.60;49.20;;;;;;5038751;28;20025;-79
2021/04/23 09:41:41;;;;;;;5.30;3.47;;;19.50;49.00;;;;;;5054665;28;20048;-78
2021/04/23 09:44:30;;;;;;;4.47;3.70;;;19.50;48.90;;;;;;5056392;28;20440;-81
2021/04/23 09:47:01;;;;;;;4.55;3.60;;;19.60;48.80;;;;;;5055641;28;20421;-86
2021/04/23 09:49:28;;;;;;;5.45;3.60;;;19.60;48.90;;;;;;5039404;28;20039;-85
2021/04/23 09:51:55;;;;;;;4.35;2.95;;;19.50;48.50;;;;;;5055586;28;20037;-81
2021/04/23 09:54:25;;;;;;;6.40;3.30;;;19.40;48.30;;;;;;5054101;28;20044;-79
2021/04/23 09:56:53;;;;;;;4.57;3.00;;;19.40;48.40;;;;;;5037806;28;20044;-80
2021/04/23 09:59:28;;;;;;;9.02;2.90;;;19.30;48.80;;;;;;5053708;28;20036;-78
2021/04/23 10:02:01;;;;;;;3.13;2.83;;;19.20;49.00;;;;;;5053530;28;20087;-79
2021/04/23 10:04:29;;;;;;;5.90;2.88;;;19.00;49.10;;;;;;5054516;28;20036;-80
2021/04/23 10:07:13;;;;;;;5.82;2.67;;;18.90;49.20;;;;;;5037302;28;20041;-78
2021/04/23 10:09:52;;;;;;;2.67;2.25;;;18.80;49.20;;;;;;5054815;28;20037;-82
2021/04/23 10:12:33;;;;;;;3.38;2.47;;;18.80;49.30;;;;;;5053711;28;20040;-77
2021/04/23 10:15:06;;;;;;;3.47;2.47;;;18.70;49.70;;;;;;5054462;28;20124;-79
2021/04/23 10:17:33;;;;;;;3.67;3.13;;;18.70;50.20;;;;;;5056011;28;20047;-80
2021/04/23 10:19:59;;;;;;;4.43;2.80;;;18.70;50.60;;;;;;5055612;28;20182;-80
2021/04/23 10:22:26;;;;;;;2.95;2.70;;;18.70;50.80;;;;;;5055906;28;20037;-81
2021/04/23 10:24:53;;;;;;;6.10;3.20;;;18.70;51.10;;;;;;5038865;28;20490;-88
2021/04/23 10:27:20;;;;;;;5.65;3.50;;;18.70;51.20;;;;;;5054915;28;20048;-83
2021/04/23 10:29:49;;;;;;;5.32;3.20;;;18.70;51.30;;;;;;5055397;28;20059;-83
2021/04/23 10:32:16;;;;;;;4.20;3.80;;;18.80;51.40;;;;;;5038122;28;20060;-81
2021/04/23 10:34:42;;;;;;;6.03;3.55;;;18.80;51.70;;;;;;5055172;28;20449;-82
2021/04/23 10:37:10;;;;;;;3.60;3.30;;;18.80;52.00;;;;;;5055564;28;20045;-83
2021/04/23 10:39:38;;;;;;;4.32;3.30;;;18.70;52.20;;;;;;5055317;28;20132;-82
2021/04/23 10:42:25;;;;;;;4.45;3.58;;;18.70;52.40;;;;;;5055084;28;20036;-81
2021/04/23 10:44:58;;;;;;;6.60;3.80;;;18.60;52.60;;;;;;5053477;28;20111;-80
2021/04/23 10:47:35;;;;;;;6.95;3.72;;;18.50;52.90;;;;;;5053063;28;20037;-81
2021/04/23 10:50:10;;;;;;;5.03;3.53;;;18.50;53.10;;;;;;5053760;28;20044;-78
2021/04/23 10:52:36;;;;;;;7.65;3.67;;;18.40;53.50;;;;;;5053353;28;20139;-81
2021/04/23 10:55:07;;;;;;;6.63;3.40;;;18.20;53.90;;;;;;5054628;28;20520;-81
2021/04/23 10:57:53;;;;;;;5.68;3.10;;;18.10;54.60;;;;;;5054292;28;20044;-81
2021/04/23 11:00:32;;;;;;;;;;;18.00;54.30;;;;;;5054286;28;20049;-83
2021/04/23 11:03:17;;;;;;;6.18;3.42;;;17.90;54.40;;;;;;5054452;28;20404;-84
2021/04/23 11:05:44;;;;;;;7.70;3.72;;;17.70;55.60;;;;;;5056231;28;20390;-84
2021/04/23 11:08:12;;;;;;;7.40;3.75;;;17.60;55.70;;;;;;5054439;28;20041;-84
2021/04/23 11:11:12;;;;;;;7.55;4.20;;;17.70;56.30;;;;;;5055742;28;20103;-82
2021/04/23 11:13:40;;;;;;;5.47;4.00;;;17.60;56.80;;;;;;5000572;28;20049;-81
2021/04/23 11:16:24;;;;;;;4.60;3.72;;;17.50;57.00;;;;;;5036869;28;20028;-81
2021/04/23 11:18:54;;;;;;;4.85;2.95;;;17.40;57.70;;;;;;5054946;28;20493;-85
2021/04/23 11:21:31;;;;;;;4.68;2.95;;;17.30;57.10;;;;;;5056953;28;20465;-90
2021/04/23 11:24:12;;;;;;;5.53;2.83;;;17.20;57.40;;;;;;5038319;28;20102;-81
2021/04/23 11:26:54;;;;;;;4.35;2.50;;;17.10;57.70;;;;;;5054667;28;20417;-85
2021/04/23 11:29:26;;;;;;;3.15;2.00;;;17.10;57.60;;;;;;5052024;28;20067;-80
2021/04/23 11:32:18;;;;;;;4.72;2.00;;;17.00;57.60;;;;;;5054237;28;20039;-78
2021/04/23 11:34:49;;;;;;;4.03;1.83;;;16.90;57.80;;;;;;5035476;28;20048;-81
2021/04/23 11:37:16;;;;;;;4.57;1.65;;;16.80;57.50;;;;;;5051587;28;20040;-81
2021/04/23 11:39:46;;;;;;;2.53;1.83;;;16.80;57.50;;;;;;5034462;28;20120;-81
2021/04/23 11:42:25;;;;;;;3.22;1.70;;;16.80;57.70;;;;;;5051211;28;20095;-80
2021/04/23 11:45:08;;;;;;;3.47;1.98;;;16.70;57.80;;;;;;5034758;28;20405;-79
2021/04/23 11:47:41;;;;;;;2.15;1.90;;;16.60;57.80;;;;;;5052616;28;20055;-82
2021/04/23 11:50:11;;;;;;;2.90;2.40;;;16.60;57.90;;;;;;5051394;28;20044;-82
2021/04/23 11:52:40;;;;;;;3.70;2.13;;;16.60;57.90;;;;;;5035671;28;20093;-82
2021/04/23 11:55:18;;;;;;;4.57;2.30;;;16.60;57.80;;;;;;5034627;28;20033;-78
2021/04/23 11:57:46;;;;;;;6.65;2.40;;;16.70;58.00;;;;;;5053785;28;20041;-84
2021/04/23 12:00:14;;;;;;;2.97;2.22;;;16.70;57.80;;;;;;5055051;28;20052;-81
2021/04/23 12:02:43;;;;;;;4.93;2.58;;;16.80;57.70;;;;;;5056627;28;20087;-83
2021/04/23 12:05:39;;;;;;;3.42;2.78;;;16.90;57.80;;;;;;5055575;28;20048;-90
2021/04/23 12:08:06;;;;;;;4.95;2.33;;;17.00;57.70;;;;;;5055060;28;20052;-89
2021/04/23 12:10:38;;;;;;;2.97;2.20;;;17.10;57.50;;;;;;5056630;28;20040;-89
2021/04/23 12:13:16;;;;;;;2.95;2.38;;;17.20;57.20;;;;;;5055278;28;20123;-84
2021/04/23 12:15:44;;;;;;;2.80;2.20;;;17.30;56.80;;;;;;5055000;28;20095;-89
2021/04/23 12:18:11;;;;;;;5.95;2.67;;;17.40;56.40;;;;;;5056738;28;20047;-88
2021/04/23 12:20:45;;;;;;;3.22;2.45;;;17.50;56.10;;;;;;5055369;28;20524;-86
2021/04/23 12:23:13;;;;;;;2.45;2.10;;;17.50;55.70;;;;;;5054709;28;20036;-83
2021/04/23 12:25:51;;;;;;;4.00;2.10;;;17.60;55.30;;;;;;5054579;28;20382;-87
2021/04/23 12:28:47;;;;;;;2.88;2.15;;;17.60;54.90;;;;;;5056214;28;20041;-84
2021/04/23 12:31:21;;;;;;;4.47;2.10;;;17.70;54.60;;;;;;5058664;28;20120;-84
2021/04/23 12:34:05;;;;;;;3.70;1.85;;;17.70;54.40;;;;;;5058873;28;20062;-82
2021/04/23 12:36:43;;;;;;;3.58;2.58;;;17.70;53.90;;;;;;5057390;28;20115;-84
2021/04/23 12:39:22;;;;;;;3.58;2.00;;;17.80;53.70;;;;;;5061366;28;20048;-83
2021/04/23 12:42:01;;;;;;;3.67;1.90;;;17.90;53.40;;;;;;5057254;28;20448;-83
2021/04/23 12:44:33;;;;;;;3.90;1.83;;;17.90;53.20;;;;;;5054746;28;20072;-82
2021/04/23 12:47:05;;;;;;;2.60;2.03;;;18.00;52.90;;;;;;5056274;28;20124;-84
2021/04/23 12:49:33;;;;;;;2.42;2.05;;;18.00;52.60;;;;;;5056555;28;20044;-84
2021/04/23 12:52:07;;;;;;;3.25;2.42;;;18.00;52.60;;;;;;5057771;28;20052;-84
2021/04/23 12:54:37;;;;;;;2.47;2.28;;;18.00;52.50;;;;;;5055233;28;20163;-81
2021/04/23 12:57:06;;;;;;;3.25;2.25;;;18.00;52.50;;;;;;5060790;28;20029;-82
2021/04/23 12:59:53;;;;;;;2.20;2.00;;;17.90;52.20;;;;;;5058286;28;20033;-82